Portada
METAR-TAF:

METAR-TAF

Aeropuertos :

Aeropuerto de Sevilla

Sevilla, España

latitud: 37-25N, longitud: 005-54W, altitud: 34 m

Observación

El informe se hizo hace 37 minutos, a las 23:30 UTC
Viento 7 kt del sur-suroeste, variando entre sureste y oeste-suroeste
Temperatura 22°C
Humedad 73%
Presión 1013 hPa
Visibilidad 10 km o más
sin nubes por debajo de 1500 m y sin presencia de cumulonimbus.

METAR: LEZL 112330Z AUTO 20007KT 140V240 CAVOK 22/17 Q1013

Hora: 02:07 (00:07 UTC)

Pronóstico

El informe se hizo hace 4 horas y 7 minutos, a las 20:00 UTC
Pronóstico válido del 11 a las 21 UTC al 12 a las 21 UTC
Viento 8 kt del sur-suroeste
Visibilidad 10 km o más
Nubes dispersas a una altura de 3000 ft

TAF: LEZL 112000Z 1121/1221 21008KT 9999 SCT030 TX30/1215Z TN20/1206Z

Observaciones y pronósticos meteorológicos de más de 4000 aeropuertos (mensajes METAR y TAF).

Los puntos amarillos y rojos representan las estaciones disponibles.

Ponga el ratón en el punto deseado para ver el nombre de la estación.

Haga clic para ver las observaciones y los pronósticos meteorológicos.

Para cambiar el mapa : haga clic en los botones verdes con una cruz de color negro para hacer un zoom, en el botón verde con un guión para alejar o en las flechas verdes para mapas adyacentes.


METAR-TAF: